sensor_id;sensor_type;location;lat;lon;timestamp;temperature;humidity
50989;DHT22;37008;52.210;21.112;2024-01-30T00:01:15;-1.10;99.90
50989;DHT22;37008;52.210;21.112;2024-01-30T00:03:41;-1.10;99.90
50989;DHT22;37008;52.210;21.112;2024-01-30T00:06:07;-1.20;99.90
50989;DHT22;37008;52.210;21.112;2024-01-30T00:08:33;-1.20;99.90
50989;DHT22;37008;52.210;21.112;2024-01-30T00:10:59;-1.20;99.90
50989;DHT22;37008;52.210;21.112;2024-01-30T00:13:24;-1.10;99.90
50989;DHT22;37008;52.210;21.112;2024-01-30T00:15:50;-1.10;99.90
50989;DHT22;37008;52.210;21.112;2024-01-30T00:18:15;-1.10;99.90
50989;DHT22;37008;52.210;21.112;2024-01-30T00:20:41;-1.10;99.90
50989;DHT22;37008;52.210;21.112;2024-01-30T00:23:08;-1.10;99.90
50989;DHT22;37008;52.210;21.112;2024-01-30T00:25:34;-1.10;99.90
50989;DHT22;37008;52.210;21.112;2024-01-30T00:28:00;-1.10;99.90
50989;DHT22;37008;52.210;21.112;2024-01-30T00:30:25;-1.10;99.90
50989;DHT22;37008;52.210;21.112;2024-01-30T00:32:51;-1.20;99.90
50989;DHT22;37008;52.210;21.112;2024-01-30T00:35:16;-1.10;99.90
50989;DHT22;37008;52.210;21.112;2024-01-30T00:37:42;-1.10;99.90
50989;DHT22;37008;52.210;21.112;2024-01-30T00:40:08;-1.10;99.90
50989;DHT22;37008;52.210;21.112;2024-01-30T00:42:35;-1.20;99.90
50989;DHT22;37008;52.210;21.112;2024-01-30T00:45:01;-1.20;99.90
50989;DHT22;37008;52.210;21.112;2024-01-30T00:47:26;-1.20;99.90
50989;DHT22;37008;52.210;21.112;2024-01-30T00:49:52;-1.20;99.90
50989;DHT22;37008;52.210;21.112;2024-01-30T00:52:18;-1.10;99.90
50989;DHT22;37008;52.210;21.112;2024-01-30T00:54:43;-1.20;99.90
50989;DHT22;37008;52.210;21.112;2024-01-30T00:57:09;-1.20;99.90
50989;DHT22;37008;52.210;21.112;2024-01-30T00:59:35;-1.30;99.90
50989;DHT22;37008;52.210;21.112;2024-01-30T01:02:01;-1.30;99.90
50989;DHT22;37008;52.210;21.112;2024-01-30T01:04:26;-1.30;99.90
50989;DHT22;37008;52.210;21.112;2024-01-30T01:06:52;-1.30;99.90
50989;DHT22;37008;52.210;21.112;2024-01-30T01:09:18;-1.30;99.90
50989;DHT22;37008;52.210;21.112;2024-01-30T01:11:43;-1.40;99.90
50989;DHT22;37008;52.210;21.112;2024-01-30T01:14:09;-1.40;99.90
50989;DHT22;37008;52.210;21.112;2024-01-30T01:16:34;-1.40;99.90
50989;DHT22;37008;52.210;21.112;2024-01-30T01:19:00;-1.50;99.90
50989;DHT22;37008;52.210;21.112;2024-01-30T01:21:26;-1.50;99.90
50989;DHT22;37008;52.210;21.112;2024-01-30T01:23:51;-1.50;99.90
50989;DHT22;37008;52.210;21.112;2024-01-30T01:26:17;-1.50;99.90
50989;DHT22;37008;52.210;21.112;2024-01-30T01:28:42;-1.50;99.90
50989;DHT22;37008;52.210;21.112;2024-01-30T01:31:09;-1.60;99.90
50989;DHT22;37008;52.210;21.112;2024-01-30T01:33:34;-1.60;99.90
50989;DHT22;37008;52.210;21.112;2024-01-30T01:36:02;-1.60;99.90
50989;DHT22;37008;52.210;21.112;2024-01-30T01:38:28;-1.60;99.90
50989;DHT22;37008;52.210;21.112;2024-01-30T01:40:54;-1.70;99.90
50989;DHT22;37008;52.210;21.112;2024-01-30T01:43:20;-1.70;99.90
50989;DHT22;37008;52.210;21.112;2024-01-30T01:45:46;-1.70;99.90
50989;DHT22;37008;52.210;21.112;2024-01-30T01:48:12;-1.70;99.90
50989;DHT22;37008;52.210;21.112;2024-01-30T01:50:38;-1.70;99.90
50989;DHT22;37008;52.210;21.112;2024-01-30T01:53:07;-1.70;99.90
50989;DHT22;37008;52.210;21.112;2024-01-30T01:55:33;-1.80;99.90
50989;DHT22;37008;52.210;21.112;2024-01-30T01:58:00;-1.80;99.90
50989;DHT22;37008;52.210;21.112;2024-01-30T02:00:25;-1.80;99.90
50989;DHT22;37008;52.210;21.112;2024-01-30T02:02:52;-1.80;99.90
50989;DHT22;37008;52.210;21.112;2024-01-30T02:05:19;-1.90;99.90
50989;DHT22;37008;52.210;21.112;2024-01-30T02:07:46;-1.90;99.90
50989;DHT22;37008;52.210;21.112;2024-01-30T02:10:12;-2.00;99.90
50989;DHT22;37008;52.210;21.112;2024-01-30T02:12:37;-2.00;99.90
50989;DHT22;37008;52.210;21.112;2024-01-30T02:15:04;-2.00;99.90
50989;DHT22;37008;52.210;21.112;2024-01-30T02:17:30;-2.00;99.90
50989;DHT22;37008;52.210;21.112;2024-01-30T02:19:56;-2.00;99.90
50989;DHT22;37008;52.210;21.112;2024-01-30T02:22:22;-2.00;99.90
50989;DHT22;37008;52.210;21.112;2024-01-30T02:24:48;-2.00;99.90
50989;DHT22;37008;52.210;21.112;2024-01-30T02:27:13;-1.90;99.90
50989;DHT22;37008;52.210;21.112;2024-01-30T02:29:39;-1.90;99.90
50989;DHT22;37008;52.210;21.112;2024-01-30T02:32:05;-1.90;99.90
50989;DHT22;37008;52.210;21.112;2024-01-30T02:34:31;-1.90;99.90
50989;DHT22;37008;52.210;21.112;2024-01-30T02:36:56;-1.90;99.90
50989;DHT22;37008;52.210;21.112;2024-01-30T02:39:23;-1.90;99.90
50989;DHT22;37008;52.210;21.112;2024-01-30T02:41:48;-1.90;99.90
50989;DHT22;37008;52.210;21.112;2024-01-30T02:44:14;-1.90;99.90
50989;DHT22;37008;52.210;21.112;2024-01-30T02:46:39;-1.80;99.90
50989;DHT22;37008;52.210;21.112;2024-01-30T02:49:05;-1.80;99.90
50989;DHT22;37008;52.210;21.112;2024-01-30T02:51:30;-1.80;99.90
50989;DHT22;37008;52.210;21.112;2024-01-30T02:53:56;-1.80;99.90
50989;DHT22;37008;52.210;21.112;2024-01-30T02:56:22;-1.80;99.90
50989;DHT22;37008;52.210;21.112;2024-01-30T02:58:47;-1.80;99.90
50989;DHT22;37008;52.210;21.112;2024-01-30T03:01:13;-1.80;99.90
50989;DHT22;37008;52.210;21.112;2024-01-30T03:03:38;-1.80;99.90
50989;DHT22;37008;52.210;21.112;2024-01-30T03:06:06;-1.80;99.90
50989;DHT22;37008;52.210;21.112;2024-01-30T03:08:32;-1.70;99.90
50989;DHT22;37008;52.210;21.112;2024-01-30T03:11:00;-1.80;99.90
50989;DHT22;37008;52.210;21.112;2024-01-30T03:13:25;-1.80;99.90
50989;DHT22;37008;52.210;21.112;2024-01-30T03:15:51;-1.80;99.90
50989;DHT22;37008;52.210;21.112;2024-01-30T03:18:17;-1.70;99.90
50989;DHT22;37008;52.210;21.112;2024-01-30T03:20:43;-1.80;99.90
50989;DHT22;37008;52.210;21.112;2024-01-30T03:23:08;-1.80;99.90
50989;DHT22;37008;52.210;21.112;2024-01-30T03:25:34;-1.80;99.90
50989;DHT22;37008;52.210;21.112;2024-01-30T03:28:00;-1.80;99.90
50989;DHT22;37008;52.210;21.112;2024-01-30T03:30:25;-1.80;99.90
50989;DHT22;37008;52.210;21.112;2024-01-30T03:32:51;-1.90;99.90
50989;DHT22;37008;52.210;21.112;2024-01-30T03:35:16;-1.90;99.90
50989;DHT22;37008;52.210;21.112;2024-01-30T03:37:42;-1.90;99.90
50989;DHT22;37008;52.210;21.112;2024-01-30T03:40:08;-1.90;99.90
50989;DHT22;37008;52.210;21.112;2024-01-30T03:42:33;-1.90;99.90
50989;DHT22;37008;52.210;21.112;2024-01-30T03:44:59;-1.90;99.90
50989;DHT22;37008;52.210;21.112;2024-01-30T03:47:25;-1.90;99.90
50989;DHT22;37008;52.210;21.112;2024-01-30T03:49:50;-1.90;99.90
50989;DHT22;37008;52.210;21.112;2024-01-30T03:52:16;-1.90;99.90
50989;DHT22;37008;52.210;21.112;2024-01-30T03:54:42;-2.00;99.90
50989;DHT22;37008;52.210;21.112;2024-01-30T03:57:07;-2.00;99.90
50989;DHT22;37008;52.210;21.112;2024-01-30T03:59:33;-2.00;99.90
50989;DHT22;37008;52.210;21.112;2024-01-30T04:01:59;-2.00;99.90
50989;DHT22;37008;52.210;21.112;2024-01-30T04:04:25;-2.00;99.90
50989;DHT22;37008;52.210;21.112;2024-01-30T04:06:50;-2.00;99.90
50989;DHT22;37008;52.210;21.112;2024-01-30T04:09:16;-2.00;99.90
50989;DHT22;37008;52.210;21.112;2024-01-30T04:11:41;-2.00;99.90
50989;DHT22;37008;52.210;21.112;2024-01-30T04:14:08;-2.00;99.90
50989;DHT22;37008;52.210;21.112;2024-01-30T04:16:33;-2.00;99.90
50989;DHT22;37008;52.210;21.112;2024-01-30T04:18:59;-1.90;99.90
50989;DHT22;37008;52.210;21.112;2024-01-30T04:21:25;-1.90;99.90
50989;DHT22;37008;52.210;21.112;2024-01-30T04:23:53;-1.90;99.90
50989;DHT22;37008;52.210;21.112;2024-01-30T04:26:19;-1.90;99.90
50989;DHT22;37008;52.210;21.112;2024-01-30T04:28:45;-1.90;99.90
50989;DHT22;37008;52.210;21.112;2024-01-30T04:31:11;-1.90;99.90
50989;DHT22;37008;52.210;21.112;2024-01-30T04:33:36;-1.90;99.90
50989;DHT22;37008;52.210;21.112;2024-01-30T04:36:03;-1.90;99.90
50989;DHT22;37008;52.210;21.112;2024-01-30T04:38:29;-1.90;99.90
50989;DHT22;37008;52.210;21.112;2024-01-30T04:40:54;-1.90;99.90
50989;DHT22;37008;52.210;21.112;2024-01-30T04:43:20;-1.90;99.90
50989;DHT22;37008;52.210;21.112;2024-01-30T04:45:46;-1.90;99.90
50989;DHT22;37008;52.210;21.112;2024-01-30T04:48:12;-1.90;99.90
50989;DHT22;37008;52.210;21.112;2024-01-30T04:50:38;-1.90;99.90
50989;DHT22;37008;52.210;21.112;2024-01-30T04:53:03;-1.90;99.90
50989;DHT22;37008;52.210;21.112;2024-01-30T04:55:29;-1.90;99.90
50989;DHT22;37008;52.210;21.112;2024-01-30T04:57:54;-1.90;99.90
50989;DHT22;37008;52.210;21.112;2024-01-30T05:00:20;-1.90;99.90
50989;DHT22;37008;52.210;21.112;2024-01-30T05:02:45;-1.90;99.90
50989;DHT22;37008;52.210;21.112;2024-01-30T05:05:11;-1.90;99.90
50989;DHT22;37008;52.210;21.112;2024-01-30T05:07:38;-1.90;99.90
50989;DHT22;37008;52.210;21.112;2024-01-30T05:10:04;-1.90;99.90
50989;DHT22;37008;52.210;21.112;2024-01-30T05:12:30;-1.90;99.90
50989;DHT22;37008;52.210;21.112;2024-01-30T05:14:55;-1.90;99.90
50989;DHT22;37008;52.210;21.112;2024-01-30T05:17:21;-1.90;99.90
50989;DHT22;37008;52.210;21.112;2024-01-30T05:19:46;-1.90;99.90
50989;DHT22;37008;52.210;21.112;2024-01-30T05:22:12;-1.90;99.90
50989;DHT22;37008;52.210;21.112;2024-01-30T05:24:41;-1.90;99.90
50989;DHT22;37008;52.210;21.112;2024-01-30T05:27:08;-1.90;99.90
50989;DHT22;37008;52.210;21.112;2024-01-30T05:29:33;-2.00;99.90
50989;DHT22;37008;52.210;21.112;2024-01-30T05:31:59;-1.90;99.90
50989;DHT22;37008;52.210;21.112;2024-01-30T05:34:24;-1.90;99.90
50989;DHT22;37008;52.210;21.112;2024-01-30T05:36:50;-1.90;99.90
50989;DHT22;37008;52.210;21.112;2024-01-30T05:39:15;-1.90;99.90
50989;DHT22;37008;52.210;21.112;2024-01-30T05:41:41;-1.90;99.90
50989;DHT22;37008;52.210;21.112;2024-01-30T05:44:07;-1.90;99.90
50989;DHT22;37008;52.210;21.112;2024-01-30T05:46:33;-1.90;99.90
50989;DHT22;37008;52.210;21.112;2024-01-30T05:48:59;-1.90;99.90
50989;DHT22;37008;52.210;21.112;2024-01-30T05:51:24;-1.90;99.90
50989;DHT22;37008;52.210;21.112;2024-01-30T05:53:50;-1.90;99.90
50989;DHT22;37008;52.210;21.112;2024-01-30T05:56:15;-1.90;99.90
50989;DHT22;37008;52.210;21.112;2024-01-30T05:58:41;-1.90;99.90
50989;DHT22;37008;52.210;21.112;2024-01-30T06:01:09;-1.90;99.90
50989;DHT22;37008;52.210;21.112;2024-01-30T06:03:35;-2.00;99.90
50989;DHT22;37008;52.210;21.112;2024-01-30T06:06:01;-1.90;99.90
50989;DHT22;37008;52.210;21.112;2024-01-30T06:08:26;-2.00;99.90
50989;DHT22;37008;52.210;21.112;2024-01-30T06:10:52;-2.00;99.90
50989;DHT22;37008;52.210;21.112;2024-01-30T06:13:18;-2.00;99.90
50989;DHT22;37008;52.210;21.112;2024-01-30T06:15:43;-2.00;99.90
50989;DHT22;37008;52.210;21.112;2024-01-30T06:18:09;-2.00;99.90
50989;DHT22;37008;52.210;21.112;2024-01-30T06:20:35;-2.00;99.90
50989;DHT22;37008;52.210;21.112;2024-01-30T06:23:00;-1.90;99.90
50989;DHT22;37008;52.210;21.112;2024-01-30T06:25:26;-2.00;99.90
50989;DHT22;37008;52.210;21.112;2024-01-30T06:27:52;-1.90;99.90
50989;DHT22;37008;52.210;21.112;2024-01-30T06:30:18;-1.90;99.90
50989;DHT22;37008;52.210;21.112;2024-01-30T06:32:43;-1.90;99.90
50989;DHT22;37008;52.210;21.112;2024-01-30T06:35:09;-1.80;99.90
50989;DHT22;37008;52.210;21.112;2024-01-30T06:37:36;-1.80;99.90
50989;DHT22;37008;52.210;21.112;2024-01-30T06:40:01;-1.90;99.90
50989;DHT22;37008;52.210;21.112;2024-01-30T06:42:27;-1.80;99.90
50989;DHT22;37008;52.210;21.112;2024-01-30T06:44:53;-1.80;99.90
50989;DHT22;37008;52.210;21.112;2024-01-30T06:47:18;-1.80;99.90
50989;DHT22;37008;52.210;21.112;2024-01-30T06:49:44;-1.70;99.90
50989;DHT22;37008;52.210;21.112;2024-01-30T06:52:10;-1.70;99.90
50989;DHT22;37008;52.210;21.112;2024-01-30T06:54:36;-1.70;99.90
50989;DHT22;37008;52.210;21.112;2024-01-30T06:57:02;-1.70;99.90
50989;DHT22;37008;52.210;21.112;2024-01-30T06:59:27;-1.60;99.90
50989;DHT22;37008;52.210;21.112;2024-01-30T07:01:53;-1.60;99.90
50989;DHT22;37008;52.210;21.112;2024-01-30T07:04:20;-1.60;99.90
50989;DHT22;37008;52.210;21.112;2024-01-30T07:06:45;-1.50;99.90
50989;DHT22;37008;52.210;21.112;2024-01-30T07:09:12;-1.50;99.90
50989;DHT22;37008;52.210;21.112;2024-01-30T07:11:39;-1.50;99.90
50989;DHT22;37008;52.210;21.112;2024-01-30T07:14:04;-1.40;99.90
50989;DHT22;37008;52.210;21.112;2024-01-30T07:16:30;-1.40;99.90
50989;DHT22;37008;52.210;21.112;2024-01-30T07:18:56;-1.40;99.90
50989;DHT22;37008;52.210;21.112;2024-01-30T07:21:22;-1.30;99.90
50989;DHT22;37008;52.210;21.112;2024-01-30T07:23:53;-1.30;99.90
50989;DHT22;37008;52.210;21.112;2024-01-30T07:26:19;-1.20;99.90
50989;DHT22;37008;52.210;21.112;2024-01-30T07:28:44;-1.20;99.90
50989;DHT22;37008;52.210;21.112;2024-01-30T07:31:10;-1.10;99.90
50989;DHT22;37008;52.210;21.112;2024-01-30T07:33:36;-1.10;99.90
50989;DHT22;37008;52.210;21.112;2024-01-30T07:36:02;-1.00;99.90
50989;DHT22;37008;52.210;21.112;2024-01-30T07:38:28;-0.90;99.90
50989;DHT22;37008;52.210;21.112;2024-01-30T07:40:56;-0.90;99.90
50989;DHT22;37008;52.210;21.112;2024-01-30T07:43:22;-0.80;99.90
50989;DHT22;37008;52.210;21.112;2024-01-30T07:45:48;-0.70;99.90
50989;DHT22;37008;52.210;21.112;2024-01-30T07:48:13;-0.70;99.90
50989;DHT22;37008;52.210;21.112;2024-01-30T07:50:39;-0.60;99.90
50989;DHT22;37008;52.210;21.112;2024-01-30T07:53:05;-0.50;99.90
50989;DHT22;37008;52.210;21.112;2024-01-30T07:55:30;-0.50;99.90
50989;DHT22;37008;52.210;21.112;2024-01-30T07:57:57;-0.50;99.90
50989;DHT22;37008;52.210;21.112;2024-01-30T08:00:24;-0.40;99.90
50989;DHT22;37008;52.210;21.112;2024-01-30T08:02:50;-0.40;99.90
50989;DHT22;37008;52.210;21.112;2024-01-30T08:05:16;-0.30;99.90
50989;DHT22;37008;52.210;21.112;2024-01-30T08:07:42;-0.30;99.90
50989;DHT22;37008;52.210;21.112;2024-01-30T08:10:12;-0.20;99.90
50989;DHT22;37008;52.210;21.112;2024-01-30T08:12:38;-0.20;99.90
50989;DHT22;37008;52.210;21.112;2024-01-30T08:15:04;-0.10;99.90
50989;DHT22;37008;52.210;21.112;2024-01-30T08:17:30;-0.10;99.90
50989;DHT22;37008;52.210;21.112;2024-01-30T08:19:56;-0.10;99.90
50989;DHT22;37008;52.210;21.112;2024-01-30T08:22:21;0.00;99.90
50989;DHT22;37008;52.210;21.112;2024-01-30T08:24:47;0.10;99.90
50989;DHT22;37008;52.210;21.112;2024-01-30T08:27:13;0.10;99.90
50989;DHT22;37008;52.210;21.112;2024-01-30T08:29:38;0.10;99.90
50989;DHT22;37008;52.210;21.112;2024-01-30T08:32:05;0.20;99.90
50989;DHT22;37008;52.210;21.112;2024-01-30T08:34:31;0.30;99.90
50989;DHT22;37008;52.210;21.112;2024-01-30T08:36:56;0.30;99.90
50989;DHT22;37008;52.210;21.112;2024-01-30T08:39:22;0.40;99.90
50989;DHT22;37008;52.210;21.112;2024-01-30T08:41:47;0.40;99.90
50989;DHT22;37008;52.210;21.112;2024-01-30T08:44:13;0.50;99.90
50989;DHT22;37008;52.210;21.112;2024-01-30T08:46:38;0.50;99.90
50989;DHT22;37008;52.210;21.112;2024-01-30T08:49:04;0.60;99.90
50989;DHT22;37008;52.210;21.112;2024-01-30T08:51:30;0.70;99.90
50989;DHT22;37008;52.210;21.112;2024-01-30T08:53:56;0.80;99.90
50989;DHT22;37008;52.210;21.112;2024-01-30T08:56:21;0.80;99.90
50989;DHT22;37008;52.210;21.112;2024-01-30T08:58:47;0.90;99.90
50989;DHT22;37008;52.210;21.112;2024-01-30T09:01:12;0.90;99.90
50989;DHT22;37008;52.210;21.112;2024-01-30T09:03:38;1.00;99.90
50989;DHT22;37008;52.210;21.112;2024-01-30T09:06:12;1.20;99.90
50989;DHT22;37008;52.210;21.112;2024-01-30T09:08:38;1.20;99.90
50989;DHT22;37008;52.210;21.112;2024-01-30T09:11:14;1.20;99.90
50989;DHT22;37008;52.210;21.112;2024-01-30T09:13:40;1.30;99.90
50989;DHT22;37008;52.210;21.112;2024-01-30T09:16:06;1.40;99.90
50989;DHT22;37008;52.210;21.112;2024-01-30T09:18:32;1.60;99.90
50989;DHT22;37008;52.210;21.112;2024-01-30T09:20:58;1.70;99.90
50989;DHT22;37008;52.210;21.112;2024-01-30T09:23:25;1.80;99.90
50989;DHT22;37008;52.210;21.112;2024-01-30T09:25:50;1.80;99.90
50989;DHT22;37008;52.210;21.112;2024-01-30T09:28:17;2.00;99.90
50989;DHT22;37008;52.210;21.112;2024-01-30T09:30:43;2.00;99.90
50989;DHT22;37008;52.210;21.112;2024-01-30T09:33:08;2.10;99.90
50989;DHT22;37008;52.210;21.112;2024-01-30T09:35:34;2.20;99.90
50989;DHT22;37008;52.210;21.112;2024-01-30T09:38:00;2.30;99.90
50989;DHT22;37008;52.210;21.112;2024-01-30T09:40:25;2.40;99.90
50989;DHT22;37008;52.210;21.112;2024-01-30T09:42:51;2.40;99.90
50989;DHT22;37008;52.210;21.112;2024-01-30T09:45:24;2.50;99.90
50989;DHT22;37008;52.210;21.112;2024-01-30T09:47:51;2.60;99.90
50989;DHT22;37008;52.210;21.112;2024-01-30T09:50:17;2.60;99.90
50989;DHT22;37008;52.210;21.112;2024-01-30T09:52:47;2.70;99.90
50989;DHT22;37008;52.210;21.112;2024-01-30T09:55:13;2.70;99.90
50989;DHT22;37008;52.210;21.112;2024-01-30T09:57:39;2.80;99.90
50989;DHT22;37008;52.210;21.112;2024-01-30T10:00:05;2.90;99.90
50989;DHT22;37008;52.210;21.112;2024-01-30T10:02:35;3.00;99.90
50989;DHT22;37008;52.210;21.112;2024-01-30T10:05:01;3.10;99.90
50989;DHT22;37008;52.210;21.112;2024-01-30T10:07:27;3.20;99.90
50989;DHT22;37008;52.210;21.112;2024-01-30T10:09:53;3.30;99.90
50989;DHT22;37008;52.210;21.112;2024-01-30T10:12:20;3.30;99.90
50989;DHT22;37008;52.210;21.112;2024-01-30T10:14:46;3.80;99.90
50989;DHT22;37008;52.210;21.112;2024-01-30T10:17:12;3.50;99.90
50989;DHT22;37008;52.210;21.112;2024-01-30T10:19:41;3.60;99.90
50989;DHT22;37008;52.210;21.112;2024-01-30T10:22:07;3.70;99.90
50989;DHT22;37008;52.210;21.112;2024-01-30T10:24:34;3.80;99.90
50989;DHT22;37008;52.210;21.112;2024-01-30T10:27:00;3.80;99.90
50989;DHT22;37008;52.210;21.112;2024-01-30T10:29:26;3.90;99.90
50989;DHT22;37008;52.210;21.112;2024-01-30T10:32:02;3.90;99.90
50989;DHT22;37008;52.210;21.112;2024-01-30T10:34:28;4.00;99.90
50989;DHT22;37008;52.210;21.112;2024-01-30T10:37:20;4.10;99.90
50989;DHT22;37008;52.210;21.112;2024-01-30T10:39:46;4.20;99.90
50989;DHT22;37008;52.210;21.112;2024-01-30T10:42:17;4.20;99.90
50989;DHT22;37008;52.210;21.112;2024-01-30T10:45:08;4.20;99.90
50989;DHT22;37008;52.210;21.112;2024-01-30T10:47:36;4.30;99.90
50989;DHT22;37008;52.210;21.112;2024-01-30T10:50:04;4.40;99.90
50989;DHT22;37008;52.210;21.112;2024-01-30T10:52:32;4.40;99.90
50989;DHT22;37008;52.210;21.112;2024-01-30T10:54:58;4.40;99.90
50989;DHT22;37008;52.210;21.112;2024-01-30T10:57:25;4.50;99.90
50989;DHT22;37008;52.210;21.112;2024-01-30T10:59:53;4.60;99.90
50989;DHT22;37008;52.210;21.112;2024-01-30T11:02:19;4.60;99.90
50989;DHT22;37008;52.210;21.112;2024-01-30T11:04:45;4.70;99.90
50989;DHT22;37008;52.210;21.112;2024-01-30T11:07:18;4.70;99.90
50989;DHT22;37008;52.210;21.112;2024-01-30T11:09:59;4.70;99.90
50989;DHT22;37008;52.210;21.112;2024-01-30T11:12:30;4.80;99.90
50989;DHT22;37008;52.210;21.112;2024-01-30T11:15:15;4.90;99.90
50989;DHT22;37008;52.210;21.112;2024-01-30T11:20:30;4.90;99.90
50989;DHT22;37008;52.210;21.112;2024-01-30T11:23:01;5.00;99.90
50989;DHT22;37008;52.210;21.112;2024-01-30T11:25:32;5.10;99.90
50989;DHT22;37008;52.210;21.112;2024-01-30T11:27:57;5.10;99.90
50989;DHT22;37008;52.210;21.112;2024-01-30T11:30:29;5.20;99.90
50989;DHT22;37008;52.210;21.112;2024-01-30T11:35:25;5.30;99.90
50989;DHT22;37008;52.210;21.112;2024-01-30T11:37:51;5.30;99.90
50989;DHT22;37008;52.210;21.112;2024-01-30T11:40:17;5.40;99.90
50989;DHT22;37008;52.210;21.112;2024-01-30T11:42:42;5.40;99.90
50989;DHT22;37008;52.210;21.112;2024-01-30T11:45:09;5.50;99.90
50989;DHT22;37008;52.210;21.112;2024-01-30T11:47:36;5.60;99.90
50989;DHT22;37008;52.210;21.112;2024-01-30T11:50:03;5.60;99.90
50989;DHT22;37008;52.210;21.112;2024-01-30T11:52:32;5.60;99.90
50989;DHT22;37008;52.210;21.112;2024-01-30T11:54:58;5.60;99.90
50989;DHT22;37008;52.210;21.112;2024-01-30T11:57:24;5.60;99.90
50989;DHT22;37008;52.210;21.112;2024-01-30T11:59:51;5.60;99.20
50989;DHT22;37008;52.210;21.112;2024-01-30T12:02:17;5.60;98.90
50989;DHT22;37008;52.210;21.112;2024-01-30T12:04:42;5.60;98.30
50989;DHT22;37008;52.210;21.112;2024-01-30T12:07:08;5.70;97.60
50989;DHT22;37008;52.210;21.112;2024-01-30T12:09:34;5.70;97.30
50989;DHT22;37008;52.210;21.112;2024-01-30T12:11:59;5.70;97.00
50989;DHT22;37008;52.210;21.112;2024-01-30T12:14:26;5.70;96.40
50989;DHT22;37008;52.210;21.112;2024-01-30T12:16:52;5.80;96.00
50989;DHT22;37008;52.210;21.112;2024-01-30T12:19:24;5.80;95.60
50989;DHT22;37008;52.210;21.112;2024-01-30T12:21:57;5.90;94.80
50989;DHT22;37008;52.210;21.112;2024-01-30T12:24:25;5.90;94.60
50989;DHT22;37008;52.210;21.112;2024-01-30T12:26:53;5.90;94.60
50989;DHT22;37008;52.210;21.112;2024-01-30T12:29:24;6.50;94.20
50989;DHT22;37008;52.210;21.112;2024-01-30T12:31:53;6.00;93.50
50989;DHT22;37008;52.210;21.112;2024-01-30T12:34:19;6.50;93.20
50989;DHT22;37008;52.210;21.112;2024-01-30T12:36:47;6.00;92.80
50989;DHT22;37008;52.210;21.112;2024-01-30T12:39:14;6.00;92.50
50989;DHT22;37008;52.210;21.112;2024-01-30T12:41:41;6.00;92.50
50989;DHT22;37008;52.210;21.112;2024-01-30T12:44:07;6.10;92.00
50989;DHT22;37008;52.210;21.112;2024-01-30T12:46:39;6.10;91.50
50989;DHT22;37008;52.210;21.112;2024-01-30T12:49:07;6.10;91.10
50989;DHT22;37008;52.210;21.112;2024-01-30T12:51:34;6.10;90.90
50989;DHT22;37008;52.210;21.112;2024-01-30T12:54:05;6.20;90.80
50989;DHT22;37008;52.210;21.112;2024-01-30T12:56:30;6.10;90.40
50989;DHT22;37008;52.210;21.112;2024-01-30T12:58:56;6.10;90.20
50989;DHT22;37008;52.210;21.112;2024-01-30T13:01:22;6.10;90.10
50989;DHT22;37008;52.210;21.112;2024-01-30T13:03:48;6.70;90.10
50989;DHT22;37008;52.210;21.112;2024-01-30T13:06:13;6.00;89.60
50989;DHT22;37008;52.210;21.112;2024-01-30T13:08:39;6.50;89.50
50989;DHT22;37008;52.210;21.112;2024-01-30T13:11:05;6.10;88.70
50989;DHT22;37008;52.210;21.112;2024-01-30T13:13:30;6.10;88.70
50989;DHT22;37008;52.210;21.112;2024-01-30T13:15:56;6.00;88.30
50989;DHT22;37008;52.210;21.112;2024-01-30T13:18:22;6.00;88.20
50989;DHT22;37008;52.210;21.112;2024-01-30T13:20:48;6.20;88.20
50989;DHT22;37008;52.210;21.112;2024-01-30T13:23:14;6.00;87.70
50989;DHT22;37008;52.210;21.112;2024-01-30T13:25:40;6.00;87.50
50989;DHT22;37008;52.210;21.112;2024-01-30T13:28:05;6.00;87.20
50989;DHT22;37008;52.210;21.112;2024-01-30T13:30:31;6.00;86.90
50989;DHT22;37008;52.210;21.112;2024-01-30T13:32:57;6.10;86.40
50989;DHT22;37008;52.210;21.112;2024-01-30T13:35:22;6.00;86.10
50989;DHT22;37008;52.210;21.112;2024-01-30T13:50:49;6.10;84.80
50989;DHT22;37008;52.210;21.112;2024-01-30T13:53:15;7.20;77.10
50989;DHT22;37008;52.210;21.112;2024-01-30T13:55:41;7.30;77.90
50989;DHT22;37008;52.210;21.112;2024-01-30T13:58:06;6.50;77.90
50989;DHT22;37008;52.210;21.112;2024-01-30T14:00:33;6.30;78.90
50989;DHT22;37008;52.210;21.112;2024-01-30T14:02:59;6.20;78.40
50989;DHT22;37008;52.210;21.112;2024-01-30T14:05:26;6.10;78.70
50989;DHT22;37008;52.210;21.112;2024-01-30T14:07:53;6.00;79.20
50989;DHT22;37008;52.210;21.112;2024-01-30T14:10:19;5.90;79.70
50989;DHT22;37008;52.210;21.112;2024-01-30T14:12:45;5.80;80.30
50989;DHT22;37008;52.210;21.112;2024-01-30T14:15:13;5.70;80.90
50989;DHT22;37008;52.210;21.112;2024-01-30T14:17:40;5.70;81.30
50989;DHT22;37008;52.210;21.112;2024-01-30T14:20:06;5.70;81.70
50989;DHT22;37008;52.210;21.112;2024-01-30T14:22:34;5.60;82.00
50989;DHT22;37008;52.210;21.112;2024-01-30T14:25:00;5.50;82.30
50989;DHT22;37008;52.210;21.112;2024-01-30T14:27:28;5.50;82.70
50989;DHT22;37008;52.210;21.112;2024-01-30T14:29:54;5.50;83.10
50989;DHT22;37008;52.210;21.112;2024-01-30T14:32:19;5.40;83.30
50989;DHT22;37008;52.210;21.112;2024-01-30T14:34:45;5.40;83.50
50989;DHT22;37008;52.210;21.112;2024-01-30T14:37:11;5.30;83.60
50989;DHT22;37008;52.210;21.112;2024-01-30T14:39:36;5.30;83.70
50989;DHT22;37008;52.210;21.112;2024-01-30T14:42:03;5.20;84.10
50989;DHT22;37008;52.210;21.112;2024-01-30T14:44:29;5.10;84.50
50989;DHT22;37008;52.210;21.112;2024-01-30T14:46:56;5.10;84.70
50989;DHT22;37008;52.210;21.112;2024-01-30T14:49:21;5.00;84.90
50989;DHT22;37008;52.210;21.112;2024-01-30T14:51:47;4.90;85.20
50989;DHT22;37008;52.210;21.112;2024-01-30T14:54:12;4.90;85.40
50989;DHT22;37008;52.210;21.112;2024-01-30T14:56:38;4.90;85.80
50989;DHT22;37008;52.210;21.112;2024-01-30T14:59:04;4.80;86.20
50989;DHT22;37008;52.210;21.112;2024-01-30T15:01:30;4.70;87.20
50989;DHT22;37008;52.210;21.112;2024-01-30T15:03:55;4.70;86.60
50989;DHT22;37008;52.210;21.112;2024-01-30T15:06:21;4.60;86.90
50989;DHT22;37008;52.210;21.112;2024-01-30T15:08:50;4.60;87.40
50989;DHT22;37008;52.210;21.112;2024-01-30T15:11:15;4.50;87.70
50989;DHT22;37008;52.210;21.112;2024-01-30T15:13:41;4.40;88.10
50989;DHT22;37008;52.210;21.112;2024-01-30T15:16:07;4.40;88.60
50989;DHT22;37008;52.210;21.112;2024-01-30T15:18:33;4.30;88.90
50989;DHT22;37008;52.210;21.112;2024-01-30T15:20:58;4.30;89.30
50989;DHT22;37008;52.210;21.112;2024-01-30T15:23:24;4.30;89.60
50989;DHT22;37008;52.210;21.112;2024-01-30T15:25:50;4.20;90.00
50989;DHT22;37008;52.210;21.112;2024-01-30T15:28:15;4.20;90.10
50989;DHT22;37008;52.210;21.112;2024-01-30T15:30:42;4.20;90.30
50989;DHT22;37008;52.210;21.112;2024-01-30T15:33:09;4.20;90.40
50989;DHT22;37008;52.210;21.112;2024-01-30T15:35:35;4.10;90.50